| time (UTC) | temp F | wind direction | speed knots | gust knots | rain 1hr in | rain 24hr in | rain mn in | humidity % | barometer mb |
| 20260507063211 | 46 | 254 | 15.6 | 0.0 | 0.00 | 0.00 | 0.07 | 95 | 1012.6 |
| 20260507060211 | 46 | 259 | 10.4 | 0.0 | 0.00 | 0.00 | 0.06 | 94 | 1012.3 |
| 20260507053211 | 46 | 250 | 12.2 | 0.0 | 0.00 | 0.00 | 0.02 | 94 | 1012.2 |
| 20260507050213 | 46 | 266 | 13.0 | 0.0 | 0.00 | 0.00 | 0.01 | 93 | 1011.8 |
| 20260507043211 | 46 | 271 | 13.9 | 0.0 | 0.00 | 0.00 | 0.00 | 92 | 1011.5 |
| 20260507040216 | 46 | 256 | 9.6 | 0.0 | 0.00 | 0.00 | 0.00 | 92 | 1011.2 |
| 20260507033211 | 46 | 267 | 11.3 | 0.0 | 0.00 | 0.00 | 0.00 | 93 | 1011.1 |
| 20260507030211 | 45 | 247 | 9.6 | 0.0 | 0.00 | 0.00 | 0.00 | 92 | 1011.0 |
| 20260507023211 | 46 | 271 | 7.8 | 0.0 | 0.00 | 0.00 | 0.00 | 92 | 1011.0 |
| 20260507020211 | 46 | 284 | 13.9 | 0.0 | 0.00 | 0.00 | 0.00 | 91 | 1010.9 |
| 20260507013212 | 46 | 269 | 17.4 | 0.0 | 0.00 | 0.00 | 0.00 | 91 | 1010.4 |
| 20260507010211 | 46 | 294 | 14.8 | 0.0 | 0.00 | 0.00 | 0.00 | 92 | 1010.2 |
| 20260507003209 | 45 | 274 | 10.4 | 0.0 | 0.00 | 0.00 | 0.00 | 94 | 1010.2 |
| 20260507000209 | 45 | 248 | 4.3 | 0.0 | 0.00 | 0.00 | 0.00 | 93 | 1010.2 |
| 20260506233209 | 45 | 254 | 7.8 | 0.0 | 0.00 | 0.00 | 0.00 | 93 | 1010.1 |
| 20260506230209 | 45 | 266 | 8.7 | 0.0 | 0.00 | 0.00 | 0.00 | 94 | 1009.8 |
| 20260506223209 | 45 | 282 | 7.8 | 0.0 | 0.00 | 0.00 | 0.00 | 94 | 1009.9 |
| 20260506220209 | 45 | 265 | 7.8 | 0.0 | 0.00 | 0.00 | 0.00 | 94 | 1009.7 |
| 20260506213209 | 46 | 248 | 7.8 | 0.0 | 0.00 | 0.00 | 0.24 | 93 | 1009.8 |
| 20260506210210 | 46 | 249 | 8.7 | 0.0 | 0.00 | 0.00 | 0.24 | 93 | 1009.8 |
| 20260506203210 | 47 | 281 | 8.7 | 0.0 | 0.00 | 0.00 | 0.24 | 91 | 1009.6 |
| 20260506200210 | 47 | 294 | 11.3 | 0.0 | 0.00 | 0.00 | 0.24 | 91 | 1009.4 |
| 20260506193215 | 47 | 269 | 13.9 | 0.0 | 0.00 | 0.00 | 0.24 | 91 | 1009.0 |
| 20260506190211 | 47 | 284 | 13.9 | 0.0 | 0.00 | 0.00 | 0.24 | 91 | 1008.4 |
| 20260506183209 | 48 | 225 | 13.0 | 0.0 | 0.00 | 0.00 | 0.24 | 91 | 1008.1 |
| 20260506180216 | 49 | 253 | 7.8 | 0.0 | 0.00 | 0.00 | 0.24 | 92 | 1008.0 |
| 20260506173210 | 48 | 271 | 15.6 | 0.0 | 0.00 | 0.00 | 0.24 | 91 | 1007.7 |
| 20260506170215 | 49 | 256 | 13.9 | 0.0 | 0.00 | 0.00 | 0.24 | 93 | 1007.5 |
| 20260506163210 | 48 | 262 | 13.0 | 0.0 | 0.00 | 0.00 | 0.24 | 93 | 1007.1 |
| 20260506160210 | 48 | 259 | 20.9 | 0.0 | 0.00 | 0.00 | 0.22 | 93 | 1007.3 |
| 20260506153210 | 48 | 239 | 19.1 | 0.0 | 0.00 | 0.00 | 0.21 | 94 | 1007.2 |
| 20260506150210 | 47 | 257 | 27.8 | 0.0 | 0.00 | 0.00 | 0.21 | 94 | 1006.6 |
| 20260506143210 | 48 | 282 | 35.6 | 0.0 | 0.00 | 0.00 | 0.09 | 91 | 1006.8 |
| 20260506140210 | 59 | 261 | 17.4 | 0.0 | 0.00 | 0.00 | 0.02 | 77 | 1004.8 |
| 20260506133211 | 60 | 222 | 9.6 | 0.0 | 0.00 | 0.00 | 0.02 | 80 | 1004.5 |
| 20260506130211 | 57 | 214 | 7.0 | 0.0 | 0.00 | 0.00 | 0.01 | 81 | 1004.2 |
| 20260506123210 | 58 | 225 | 7.0 | 0.0 | 0.00 | 0.00 | 0.01 | 79 | 1004.6 |
| 20260506120210 | 59 | 267 | 9.6 | 0.0 | 0.00 | 0.00 | 0.01 | 77 | 1004.2 |
| 20260506113217 | 60 | 86 | 1.7 | 0.0 | 0.00 | 0.00 | 0.01 | 69 | 1004.0 |
| 20260506110210 | 60 | 201 | 0.9 | 0.0 | 0.00 | 0.00 | 0.01 | 68 | 1004.4 |
| 20260506100213 | 58 | 96 | 6.1 | 0.0 | 0.00 | 0.00 | 0.01 | 75 | 1004.7 |
| 20260506093211 | 56 | 104 | 7.0 | 0.0 | 0.00 | 0.00 | 0.01 | 81 | 1004.8 |
| 20260506090211 | 56 | 242 | 3.5 | 0.0 | 0.00 | 0.00 | 0.01 | 85 | 1005.1 |
| 20260506083211 | 55 | 261 | 3.5 | 0.0 | 0.00 | 0.00 | 0.01 | 80 | 1005.2 |
| 20260506080212 | 54 | 109 | 4.3 | 0.0 | 0.00 | 0.00 | 0.01 | 83 | 1004.8 |
| 20260506073211 | 53 | 265 | 2.6 | 0.0 | 0.00 | 0.00 | 0.01 | 91 | 1005.2 |
| 20260506070212 | 52 | 57 | 1.7 | 0.0 | 0.00 | 0.00 | 0.01 | 93 | 1005.0 |